sensor_id;sensor_type;location;lat;lon;timestamp;pressure;altitude;pressure_sealevel;temperature;humidity
29417;BME280;28421;51.030;4.006;2023-07-29T00:00:49;100738.50;;;18.84;84.61
29417;BME280;28421;51.030;4.006;2023-07-29T00:03:14;100716.50;;;18.68;84.86
29417;BME280;28421;51.030;4.006;2023-07-29T00:05:40;100787.50;;;19.03;84.86
29417;BME280;28421;51.030;4.006;2023-07-29T00:08:06;100785.09;;;18.95;85.41
29417;BME280;28421;51.030;4.006;2023-07-29T00:10:36;100781.66;;;18.87;85.56
29417;BME280;28421;51.030;4.006;2023-07-29T00:13:02;100777.72;;;18.83;86.07
29417;BME280;28421;51.030;4.006;2023-07-29T00:15:28;100801.69;;;18.93;85.90
29417;BME280;28421;51.030;4.006;2023-07-29T00:17:53;100759.81;;;18.69;85.74
29417;BME280;28421;51.030;4.006;2023-07-29T00:20:19;100764.50;;;18.44;87.17
29417;BME280;28421;51.030;4.006;2023-07-29T00:22:44;100781.44;;;18.71;86.90
29417;BME280;28421;51.030;4.006;2023-07-29T00:25:10;100802.06;;;18.78;87.24
29417;BME280;28421;51.030;4.006;2023-07-29T00:27:35;100784.31;;;18.32;88.39
29417;BME280;28421;51.030;4.006;2023-07-29T00:30:00;100779.34;;;18.48;87.96
29417;BME280;28421;51.030;4.006;2023-07-29T00:32:29;100750.38;;;17.92;89.07
29417;BME280;28421;51.030;4.006;2023-07-29T00:34:54;100756.28;;;17.88;88.86
29417;BME280;28421;51.030;4.006;2023-07-29T00:37:21;100727.53;;;17.68;90.56
29417;BME280;28421;51.030;4.006;2023-07-29T00:39:46;100738.28;;;17.87;90.45
29417;BME280;28421;51.030;4.006;2023-07-29T00:42:12;100770.16;;;18.24;89.50
29417;BME280;28421;51.030;4.006;2023-07-29T00:44:37;100729.53;;;18.04;89.16
29417;BME280;28421;51.030;4.006;2023-07-29T00:47:03;100750.50;;;18.22;88.66
29417;BME280;28421;51.030;4.006;2023-07-29T00:49:30;100753.13;;;18.10;88.54
29417;BME280;28421;51.030;4.006;2023-07-29T00:51:56;100756.84;;;18.16;88.62
29417;BME280;28421;51.030;4.006;2023-07-29T00:54:24;100788.25;;;18.36;88.69
29417;BME280;28421;51.030;4.006;2023-07-29T00:56:49;100719.78;;;17.96;88.44
29417;BME280;28421;51.030;4.006;2023-07-29T00:59:15;100729.00;;;17.95;88.68
29417;BME280;28421;51.030;4.006;2023-07-29T01:01:41;100751.41;;;18.16;88.84
29417;BME280;28421;51.030;4.006;2023-07-29T01:04:07;100750.44;;;18.28;89.02
29417;BME280;28421;51.030;4.006;2023-07-29T01:07:14;100681.09;;;17.94;88.84
29417;BME280;28421;51.030;4.006;2023-07-29T01:09:49;100739.47;;;18.35;88.62
29417;BME280;28421;51.030;4.006;2023-07-29T01:12:28;100715.00;;;18.17;87.88
29417;BME280;28421;51.030;4.006;2023-07-29T01:15:24;100687.06;;;18.03;88.08
29417;BME280;28421;51.030;4.006;2023-07-29T01:17:55;100737.34;;;18.37;88.38
29417;BME280;28421;51.030;4.006;2023-07-29T01:20:21;100697.66;;;18.11;88.64
29417;BME280;28421;51.030;4.006;2023-07-29T01:22:50;100702.22;;;18.17;88.53
29417;BME280;28421;51.030;4.006;2023-07-29T01:25:15;100707.84;;;18.16;88.91
29417;BME280;28421;51.030;4.006;2023-07-29T01:27:42;100707.19;;;18.20;88.46
29417;BME280;28421;51.030;4.006;2023-07-29T01:30:08;100709.06;;;18.20;88.56
29417;BME280;28421;51.030;4.006;2023-07-29T01:35:15;100733.91;;;18.30;88.89
29417;BME280;28421;51.030;4.006;2023-07-29T01:37:48;100690.84;;;18.02;88.97
29417;BME280;28421;51.030;4.006;2023-07-29T01:40:15;100665.59;;;17.70;89.34
29417;BME280;28421;51.030;4.006;2023-07-29T01:42:41;100723.88;;;18.05;89.41
29417;BME280;28421;51.030;4.006;2023-07-29T01:45:07;100754.44;;;18.26;88.97
29417;BME280;28421;51.030;4.006;2023-07-29T01:47:33;100713.53;;;17.96;89.67
29417;BME280;28421;51.030;4.006;2023-07-29T01:49:58;100725.66;;;17.93;89.48
29417;BME280;28421;51.030;4.006;2023-07-29T01:52:24;100741.63;;;18.08;89.50
29417;BME280;28421;51.030;4.006;2023-07-29T01:54:49;100742.84;;;18.12;89.33
29417;BME280;28421;51.030;4.006;2023-07-29T01:57:15;100703.97;;;17.86;89.46
29417;BME280;28421;51.030;4.006;2023-07-29T01:59:40;100719.22;;;18.12;89.64
29417;BME280;28421;51.030;4.006;2023-07-29T02:02:06;100695.91;;;17.98;89.48
29417;BME280;28421;51.030;4.006;2023-07-29T02:04:31;100676.84;;;17.80;89.77
29417;BME280;28421;51.030;4.006;2023-07-29T02:06:57;100671.63;;;17.78;89.54
29417;BME280;28421;51.030;4.006;2023-07-29T02:09:22;100664.63;;;17.64;89.23
29417;BME280;28421;51.030;4.006;2023-07-29T02:11:48;100713.97;;;17.93;89.74
29417;BME280;28421;51.030;4.006;2023-07-29T02:14:13;100750.66;;;18.08;89.84
29417;BME280;28421;51.030;4.006;2023-07-29T02:16:38;100700.75;;;17.71;89.46
29417;BME280;28421;51.030;4.006;2023-07-29T02:19:04;100679.72;;;17.60;89.68
29417;BME280;28421;51.030;4.006;2023-07-29T02:21:30;100723.28;;;17.78;90.10
29417;BME280;28421;51.030;4.006;2023-07-29T02:23:55;100721.72;;;17.64;90.06
29417;BME280;28421;51.030;4.006;2023-07-29T02:26:22;100725.41;;;17.70;90.82
29417;BME280;28421;51.030;4.006;2023-07-29T02:28:47;100707.59;;;17.49;91.25
29417;BME280;28421;51.030;4.006;2023-07-29T02:31:20;100759.38;;;17.92;91.01
29417;BME280;28421;51.030;4.006;2023-07-29T02:33:46;100721.31;;;17.60;92.00
29417;BME280;28421;51.030;4.006;2023-07-29T02:36:13;100690.75;;;17.65;90.77
29417;BME280;28421;51.030;4.006;2023-07-29T02:38:39;100710.16;;;17.69;90.47
29417;BME280;28421;51.030;4.006;2023-07-29T02:41:05;100712.22;;;17.48;91.03
29417;BME280;28421;51.030;4.006;2023-07-29T02:43:31;100673.88;;;17.31;91.02
29417;BME280;28421;51.030;4.006;2023-07-29T02:45:57;100731.09;;;17.68;91.10
29417;BME280;28421;51.030;4.006;2023-07-29T02:48:22;100708.72;;;17.66;90.60
29417;BME280;28421;51.030;4.006;2023-07-29T02:50:48;100716.63;;;17.74;90.75
29417;BME280;28421;51.030;4.006;2023-07-29T02:53:13;100657.28;;;17.39;90.30
29417;BME280;28421;51.030;4.006;2023-07-29T02:55:42;100662.28;;;17.43;90.72
29417;BME280;28421;51.030;4.006;2023-07-29T02:58:07;100635.59;;;17.33;90.33
29417;BME280;28421;51.030;4.006;2023-07-29T03:00:33;100650.31;;;17.50;90.30
29417;BME280;28421;51.030;4.006;2023-07-29T03:02:59;100678.22;;;17.64;90.13
29417;BME280;28421;51.030;4.006;2023-07-29T03:05:27;100681.75;;;17.64;90.67
29417;BME280;28421;51.030;4.006;2023-07-29T03:07:52;100706.38;;;17.76;90.84
29417;BME280;28421;51.030;4.006;2023-07-29T03:10:18;100664.50;;;17.52;90.43
29417;BME280;28421;51.030;4.006;2023-07-29T03:12:43;100665.72;;;17.56;90.31
29417;BME280;28421;51.030;4.006;2023-07-29T03:15:09;100697.16;;;17.71;89.73
29417;BME280;28421;51.030;4.006;2023-07-29T03:17:34;100709.19;;;17.88;89.74
29417;BME280;28421;51.030;4.006;2023-07-29T03:20:00;100677.59;;;17.62;89.56
29417;BME280;28421;51.030;4.006;2023-07-29T03:22:25;100730.06;;;17.94;89.17
29417;BME280;28421;51.030;4.006;2023-07-29T03:24:51;100710.91;;;17.82;89.03
29417;BME280;28421;51.030;4.006;2023-07-29T03:27:16;100726.19;;;17.83;89.07
29417;BME280;28421;51.030;4.006;2023-07-29T03:29:42;100690.06;;;17.70;88.38
29417;BME280;28421;51.030;4.006;2023-07-29T03:32:07;100693.56;;;17.52;89.62
29417;BME280;28421;51.030;4.006;2023-07-29T03:34:33;100697.53;;;17.56;89.20
29417;BME280;28421;51.030;4.006;2023-07-29T03:37:00;100719.22;;;17.62;89.05
29417;BME280;28421;51.030;4.006;2023-07-29T03:39:26;100697.56;;;17.49;89.06
29417;BME280;28421;51.030;4.006;2023-07-29T03:41:52;100674.09;;;17.30;89.12
29417;BME280;28421;51.030;4.006;2023-07-29T03:44:17;100725.69;;;17.61;89.05
29417;BME280;28421;51.030;4.006;2023-07-29T03:46:44;100729.78;;;17.71;88.76
29417;BME280;28421;51.030;4.006;2023-07-29T03:49:10;100708.00;;;17.52;88.83
29417;BME280;28421;51.030;4.006;2023-07-29T03:51:36;100721.00;;;17.50;88.67
29417;BME280;28421;51.030;4.006;2023-07-29T03:54:02;100725.97;;;17.53;88.49
29417;BME280;28421;51.030;4.006;2023-07-29T03:56:27;100717.06;;;17.46;88.45
29417;BME280;28421;51.030;4.006;2023-07-29T03:58:53;100730.53;;;17.59;88.66
29417;BME280;28421;51.030;4.006;2023-07-29T04:01:19;100717.13;;;17.33;88.68
29417;BME280;28421;51.030;4.006;2023-07-29T04:03:47;100715.06;;;17.28;89.02
29417;BME280;28421;51.030;4.006;2023-07-29T04:06:13;100709.97;;;17.13;88.95
29417;BME280;28421;51.030;4.006;2023-07-29T04:08:39;100723.34;;;17.40;89.13
29417;BME280;28421;51.030;4.006;2023-07-29T04:11:04;100711.09;;;17.31;88.41
29417;BME280;28421;51.030;4.006;2023-07-29T04:13:30;100733.56;;;17.45;88.66
29417;BME280;28421;51.030;4.006;2023-07-29T04:15:55;100740.13;;;17.62;88.51
29417;BME280;28421;51.030;4.006;2023-07-29T04:18:21;100718.88;;;17.52;87.28
29417;BME280;28421;51.030;4.006;2023-07-29T04:20:47;100724.28;;;17.59;87.10
29417;BME280;28421;51.030;4.006;2023-07-29T04:23:13;100726.16;;;17.58;87.45
29417;BME280;28421;51.030;4.006;2023-07-29T04:25:38;100701.97;;;17.50;87.05
29417;BME280;28421;51.030;4.006;2023-07-29T04:28:04;100669.44;;;17.37;86.74
29417;BME280;28421;51.030;4.006;2023-07-29T04:30:30;100718.75;;;17.65;86.60
29417;BME280;28421;51.030;4.006;2023-07-29T04:32:55;100689.28;;;17.37;86.68
29417;BME280;28421;51.030;4.006;2023-07-29T04:35:21;100696.88;;;17.54;86.03
29417;BME280;28421;51.030;4.006;2023-07-29T04:37:46;100683.56;;;17.46;85.77
29417;BME280;28421;51.030;4.006;2023-07-29T04:40:13;100752.50;;;17.89;85.62
29417;BME280;28421;51.030;4.006;2023-07-29T04:42:39;100692.63;;;17.64;85.37
29417;BME280;28421;51.030;4.006;2023-07-29T04:45:05;100668.31;;;17.45;84.91
29417;BME280;28421;51.030;4.006;2023-07-29T04:47:31;100680.84;;;17.46;85.19
29417;BME280;28421;51.030;4.006;2023-07-29T04:49:57;100735.00;;;17.79;85.59
29417;BME280;28421;51.030;4.006;2023-07-29T04:52:22;100694.41;;;17.52;85.34
29417;BME280;28421;51.030;4.006;2023-07-29T04:54:48;100679.16;;;17.51;85.48
29417;BME280;28421;51.030;4.006;2023-07-29T04:57:14;100697.53;;;17.56;85.93
29417;BME280;28421;51.030;4.006;2023-07-29T04:59:39;100689.69;;;17.41;85.85
29417;BME280;28421;51.030;4.006;2023-07-29T05:02:05;100680.69;;;17.40;86.06
29417;BME280;28421;51.030;4.006;2023-07-29T05:04:30;100723.38;;;17.65;85.63
29417;BME280;28421;51.030;4.006;2023-07-29T05:06:56;100698.84;;;17.47;85.23
29417;BME280;28421;51.030;4.006;2023-07-29T05:09:21;100713.19;;;17.54;85.97
29417;BME280;28421;51.030;4.006;2023-07-29T05:11:47;100687.44;;;17.38;86.49
29417;BME280;28421;51.030;4.006;2023-07-29T05:14:15;100730.84;;;17.70;85.98
29417;BME280;28421;51.030;4.006;2023-07-29T05:16:41;100694.91;;;17.43;86.12
29417;BME280;28421;51.030;4.006;2023-07-29T05:19:09;100702.88;;;17.37;86.56
29417;BME280;28421;51.030;4.006;2023-07-29T05:21:36;100706.44;;;17.38;86.25
29417;BME280;28421;51.030;4.006;2023-07-29T05:24:03;100664.44;;;17.09;86.57
29417;BME280;28421;51.030;4.006;2023-07-29T05:26:28;100713.94;;;17.43;86.53
29417;BME280;28421;51.030;4.006;2023-07-29T05:28:54;100708.09;;;17.39;87.04
29417;BME280;28421;51.030;4.006;2023-07-29T05:31:19;100741.72;;;17.70;87.44
29417;BME280;28421;51.030;4.006;2023-07-29T05:33:45;100700.78;;;17.39;87.47
29417;BME280;28421;51.030;4.006;2023-07-29T05:36:10;100733.38;;;17.71;87.03
29417;BME280;28421;51.030;4.006;2023-07-29T05:38:35;100666.22;;;17.22;87.11
29417;BME280;28421;51.030;4.006;2023-07-29T05:41:01;100751.50;;;17.84;87.16
29417;BME280;28421;51.030;4.006;2023-07-29T05:43:27;100698.66;;;17.67;86.97
29417;BME280;28421;51.030;4.006;2023-07-29T05:45:53;100700.50;;;17.79;86.84
29417;BME280;28421;51.030;4.006;2023-07-29T05:48:20;100705.03;;;17.85;86.22
29417;BME280;28421;51.030;4.006;2023-07-29T05:50:45;100711.91;;;17.88;87.17
29417;BME280;28421;51.030;4.006;2023-07-29T05:53:11;100719.28;;;18.06;86.29
29417;BME280;28421;51.030;4.006;2023-07-29T05:55:37;100672.19;;;18.05;85.30
29417;BME280;28421;51.030;4.006;2023-07-29T05:58:02;100721.03;;;18.55;84.93
29417;BME280;28421;51.030;4.006;2023-07-29T06:00:28;100739.09;;;18.68;83.70
29417;BME280;28421;51.030;4.006;2023-07-29T06:02:53;100740.34;;;18.72;83.34
29417;BME280;28421;51.030;4.006;2023-07-29T06:05:21;100711.34;;;18.59;82.72
29417;BME280;28421;51.030;4.006;2023-07-29T06:07:46;100673.09;;;18.36;82.62
29417;BME280;28421;51.030;4.006;2023-07-29T06:10:15;100701.97;;;18.55;82.75
29417;BME280;28421;51.030;4.006;2023-07-29T06:12:47;100730.91;;;18.75;82.51
29417;BME280;28421;51.030;4.006;2023-07-29T06:15:13;100727.38;;;18.68;82.42
29417;BME280;28421;51.030;4.006;2023-07-29T06:17:40;100723.84;;;18.67;81.90
29417;BME280;28421;51.030;4.006;2023-07-29T06:20:06;100710.22;;;18.67;82.23
29417;BME280;28421;51.030;4.006;2023-07-29T06:22:32;100725.28;;;18.88;82.04
29417;BME280;28421;51.030;4.006;2023-07-29T06:24:57;100712.41;;;18.77;81.35
29417;BME280;28421;51.030;4.006;2023-07-29T06:27:23;100690.31;;;18.85;80.41
29417;BME280;28421;51.030;4.006;2023-07-29T06:29:50;100700.09;;;19.04;79.21
29417;BME280;28421;51.030;4.006;2023-07-29T06:32:16;100744.09;;;19.50;78.53
29417;BME280;28421;51.030;4.006;2023-07-29T06:34:41;100721.41;;;19.07;78.14
29417;BME280;28421;51.030;4.006;2023-07-29T06:37:06;100747.19;;;19.23;79.57
29417;BME280;28421;51.030;4.006;2023-07-29T06:39:32;100740.72;;;19.36;79.18
29417;BME280;28421;51.030;4.006;2023-07-29T06:41:57;100743.47;;;19.48;78.23
29417;BME280;28421;51.030;4.006;2023-07-29T06:44:23;100765.88;;;19.38;78.49
29417;BME280;28421;51.030;4.006;2023-07-29T06:46:48;100731.75;;;19.47;77.70
29417;BME280;28421;51.030;4.006;2023-07-29T06:49:14;100783.78;;;19.76;77.08
29417;BME280;28421;51.030;4.006;2023-07-29T06:51:39;100745.81;;;19.63;77.64
29417;BME280;28421;51.030;4.006;2023-07-29T06:54:04;100746.88;;;19.31;77.69
29417;BME280;28421;51.030;4.006;2023-07-29T06:56:30;100742.00;;;19.64;77.22
29417;BME280;28421;51.030;4.006;2023-07-29T06:58:55;100756.13;;;19.72;76.71
29417;BME280;28421;51.030;4.006;2023-07-29T07:01:21;100744.75;;;19.64;76.69
29417;BME280;28421;51.030;4.006;2023-07-29T07:03:47;100740.13;;;19.76;76.85
29417;BME280;28421;51.030;4.006;2023-07-29T07:06:12;100770.38;;;19.86;77.15
29417;BME280;28421;51.030;4.006;2023-07-29T07:08:37;100758.50;;;19.69;76.19
29417;BME280;28421;51.030;4.006;2023-07-29T07:11:03;100777.53;;;19.87;76.88
29417;BME280;28421;51.030;4.006;2023-07-29T07:13:28;100757.56;;;19.98;75.79
29417;BME280;28421;51.030;4.006;2023-07-29T07:15:54;100761.28;;;20.16;75.60
29417;BME280;28421;51.030;4.006;2023-07-29T07:18:20;100740.25;;;20.28;74.77
29417;BME280;28421;51.030;4.006;2023-07-29T07:20:51;100742.25;;;20.44;73.89
29417;BME280;28421;51.030;4.006;2023-07-29T07:23:18;100735.25;;;20.48;73.08
29417;BME280;28421;51.030;4.006;2023-07-29T07:25:43;100757.34;;;20.58;72.77
29417;BME280;28421;51.030;4.006;2023-07-29T07:28:09;100751.50;;;20.43;72.92
29417;BME280;28421;51.030;4.006;2023-07-29T07:30:34;100731.72;;;20.13;74.45
29417;BME280;28421;51.030;4.006;2023-07-29T07:33:00;100779.78;;;20.60;73.95
29417;BME280;28421;51.030;4.006;2023-07-29T07:35:26;100761.63;;;20.66;73.54
29417;BME280;28421;51.030;4.006;2023-07-29T07:37:51;100724.53;;;20.70;72.61
29417;BME280;28421;51.030;4.006;2023-07-29T07:40:17;100747.00;;;20.60;73.52
29417;BME280;28421;51.030;4.006;2023-07-29T07:42:43;100767.84;;;20.90;72.25
29417;BME280;28421;51.030;4.006;2023-07-29T07:45:08;100734.09;;;20.84;71.86
29417;BME280;28421;51.030;4.006;2023-07-29T07:47:33;100733.81;;;20.98;72.23
29417;BME280;28421;51.030;4.006;2023-07-29T07:49:59;100746.28;;;20.65;73.08
29417;BME280;28421;51.030;4.006;2023-07-29T07:52:24;100744.59;;;20.76;73.09
29417;BME280;28421;51.030;4.006;2023-07-29T07:54:54;100766.97;;;21.30;73.21
29417;BME280;28421;51.030;4.006;2023-07-29T07:57:21;100743.44;;;21.29;72.82
29417;BME280;28421;51.030;4.006;2023-07-29T07:59:46;100720.69;;;21.12;70.94
29417;BME280;28421;51.030;4.006;2023-07-29T08:02:12;100738.75;;;21.41;70.81
29417;BME280;28421;51.030;4.006;2023-07-29T08:04:37;100750.28;;;21.60;70.52
29417;BME280;28421;51.030;4.006;2023-07-29T08:07:03;100742.91;;;21.60;70.78
29417;BME280;28421;51.030;4.006;2023-07-29T08:09:28;100776.53;;;22.06;70.90
29417;BME280;28421;51.030;4.006;2023-07-29T08:11:54;100738.28;;;21.44;71.07
29417;BME280;28421;51.030;4.006;2023-07-29T08:14:19;100700.06;;;21.32;71.10
29417;BME280;28421;51.030;4.006;2023-07-29T08:16:45;100713.97;;;21.65;70.13
29417;BME280;28421;51.030;4.006;2023-07-29T08:19:10;100743.66;;;21.73;70.50
29417;BME280;28421;51.030;4.006;2023-07-29T08:21:36;100736.06;;;21.58;71.42
29417;BME280;28421;51.030;4.006;2023-07-29T08:24:01;100736.38;;;21.78;70.55
29417;BME280;28421;51.030;4.006;2023-07-29T08:26:27;100742.34;;;21.92;70.08
29417;BME280;28421;51.030;4.006;2023-07-29T08:28:52;100737.28;;;22.18;68.66
29417;BME280;28421;51.030;4.006;2023-07-29T08:31:18;100692.72;;;22.05;67.04
29417;BME280;28421;51.030;4.006;2023-07-29T08:33:43;100728.41;;;22.49;66.22
29417;BME280;28421;51.030;4.006;2023-07-29T08:36:08;100738.44;;;22.05;67.54
29417;BME280;28421;51.030;4.006;2023-07-29T08:38:34;100759.88;;;22.47;66.76
29417;BME280;28421;51.030;4.006;2023-07-29T08:41:10;100756.13;;;22.75;66.63
29417;BME280;28421;51.030;4.006;2023-07-29T08:43:40;100727.25;;;22.67;66.08
29417;BME280;28421;51.030;4.006;2023-07-29T08:46:09;100745.44;;;22.73;66.70
29417;BME280;28421;51.030;4.006;2023-07-29T08:48:41;100736.91;;;22.70;64.76
29417;BME280;28421;51.030;4.006;2023-07-29T08:51:08;100771.38;;;22.88;66.62
29417;BME280;28421;51.030;4.006;2023-07-29T08:53:35;100737.97;;;22.47;65.33
29417;BME280;28421;51.030;4.006;2023-07-29T08:56:01;100741.47;;;22.42;66.36
29417;BME280;28421;51.030;4.006;2023-07-29T08:58:26;100722.09;;;22.71;65.47
29417;BME280;28421;51.030;4.006;2023-07-29T09:00:52;100705.81;;;23.08;65.89
29417;BME280;28421;51.030;4.006;2023-07-29T09:03:18;100717.63;;;23.36;64.12
29417;BME280;28421;51.030;4.006;2023-07-29T09:05:45;100748.78;;;23.84;62.33
29417;BME280;28421;51.030;4.006;2023-07-29T09:08:11;100723.88;;;23.63;62.97
29417;BME280;28421;51.030;4.006;2023-07-29T09:10:37;100730.28;;;23.69;63.12
29417;BME280;28421;51.030;4.006;2023-07-29T09:13:04;100738.06;;;23.77;63.72
29417;BME280;28421;51.030;4.006;2023-07-29T09:15:31;100768.03;;;23.89;63.54
29417;BME280;28421;51.030;4.006;2023-07-29T09:17:57;100765.53;;;23.55;64.26
29417;BME280;28421;51.030;4.006;2023-07-29T09:20:27;100720.78;;;22.73;65.56
29417;BME280;28421;51.030;4.006;2023-07-29T09:22:58;100770.16;;;22.78;67.27
29417;BME280;28421;51.030;4.006;2023-07-29T09:25:29;100738.53;;;22.71;66.91
29417;BME280;28421;51.030;4.006;2023-07-29T09:27:59;100763.59;;;23.01;66.98
29417;BME280;28421;51.030;4.006;2023-07-29T09:30:25;100764.47;;;23.29;66.39
29417;BME280;28421;51.030;4.006;2023-07-29T09:32:57;100728.53;;;23.30;65.36
29417;BME280;28421;51.030;4.006;2023-07-29T09:35:27;100751.88;;;23.60;64.28
29417;BME280;28421;51.030;4.006;2023-07-29T09:37:52;100738.69;;;23.89;63.36
29417;BME280;28421;51.030;4.006;2023-07-29T09:40:18;100729.59;;;23.89;62.20
29417;BME280;28421;51.030;4.006;2023-07-29T09:42:48;100681.59;;;23.59;61.76
29417;BME280;28421;51.030;4.006;2023-07-29T09:45:19;100721.13;;;23.90;62.27
29417;BME280;28421;51.030;4.006;2023-07-29T09:47:46;100763.31;;;24.16;61.43
29417;BME280;28421;51.030;4.006;2023-07-29T09:50:12;100732.16;;;24.38;59.67
29417;BME280;28421;51.030;4.006;2023-07-29T09:52:37;100760.81;;;24.47;59.48
29417;BME280;28421;51.030;4.006;2023-07-29T09:55:03;100704.88;;;23.89;59.38
29417;BME280;28421;51.030;4.006;2023-07-29T09:57:29;100742.41;;;24.58;59.93
29417;BME280;28421;51.030;4.006;2023-07-29T09:59:55;100698.44;;;24.52;59.12
29417;BME280;28421;51.030;4.006;2023-07-29T10:02:22;100706.97;;;24.61;58.51
29417;BME280;28421;51.030;4.006;2023-07-29T10:04:48;100715.44;;;24.49;58.12
29417;BME280;28421;51.030;4.006;2023-07-29T10:07:14;100723.56;;;24.82;57.99
29417;BME280;28421;51.030;4.006;2023-07-29T10:09:41;100701.75;;;24.60;58.86
29417;BME280;28421;51.030;4.006;2023-07-29T10:12:09;100721.09;;;24.80;57.60
29417;BME280;28421;51.030;4.006;2023-07-29T10:14:35;100679.28;;;24.25;57.62
29417;BME280;28421;51.030;4.006;2023-07-29T10:17:02;100737.84;;;23.89;59.82
29417;BME280;28421;51.030;4.006;2023-07-29T10:19:28;100728.34;;;24.01;61.07
29417;BME280;28421;51.030;4.006;2023-07-29T10:21:59;100684.03;;;23.93;61.00
29417;BME280;28421;51.030;4.006;2023-07-29T10:24:29;100730.31;;;24.11;60.25
29417;BME280;28421;51.030;4.006;2023-07-29T10:27:00;100680.66;;;23.43;60.53
29417;BME280;28421;51.030;4.006;2023-07-29T10:29:38;100713.78;;;23.37;61.45
29417;BME280;28421;51.030;4.006;2023-07-29T10:32:04;100704.38;;;23.60;61.77
29417;BME280;28421;51.030;4.006;2023-07-29T10:34:31;100752.44;;;23.89;62.33
29417;BME280;28421;51.030;4.006;2023-07-29T10:36:57;100676.63;;;23.24;65.49
29417;BME280;28421;51.030;4.006;2023-07-29T10:39:26;100723.28;;;23.24;66.78
29417;BME280;28421;51.030;4.006;2023-07-29T10:41:56;100713.78;;;22.88;68.02
29417;BME280;28421;51.030;4.006;2023-07-29T10:47:14;100745.69;;;23.16;67.58
29417;BME280;28421;51.030;4.006;2023-07-29T10:50:00;100689.34;;;22.81;71.40
29417;BME280;28421;51.030;4.006;2023-07-29T10:55:02;100769.47;;;22.11;75.03
29417;BME280;28421;51.030;4.006;2023-07-29T10:57:34;100710.50;;;20.78;80.38
29417;BME280;28421;51.030;4.006;2023-07-29T11:00:00;100786.66;;;20.40;87.74
29417;BME280;28421;51.030;4.006;2023-07-29T11:02:31;100771.00;;;20.23;89.90
29417;BME280;28421;51.030;4.006;2023-07-29T11:04:57;100771.94;;;19.94;90.11
29417;BME280;28421;51.030;4.006;2023-07-29T11:07:25;100726.56;;;19.57;92.01
29417;BME280;28421;51.030;4.006;2023-07-29T11:10:01;100789.97;;;19.83;92.48
29417;BME280;28421;51.030;4.006;2023-07-29T11:15:26;100778.78;;;19.73;97.19
29417;BME280;28421;51.030;4.006;2023-07-29T11:20:19;100774.19;;;19.43;97.64
29417;BME280;28421;51.030;4.006;2023-07-29T11:22:45;100774.63;;;19.40;98.48
29417;BME280;28421;51.030;4.006;2023-07-29T11:25:13;100722.69;;;18.93;100.00
29417;BME280;28421;51.030;4.006;2023-07-29T11:27:38;100806.91;;;19.43;100.00
29417;BME280;28421;51.030;4.006;2023-07-29T11:30:11;100796.38;;;19.47;100.00
29417;BME280;28421;51.030;4.006;2023-07-29T11:32:38;100734.56;;;19.29;100.00
29417;BME280;28421;51.030;4.006;2023-07-29T11:35:18;100768.00;;;19.78;100.00
29417;BME280;28421;51.030;4.006;2023-07-29T11:37:49;100758.19;;;20.12;100.00
29417;BME280;28421;51.030;4.006;2023-07-29T11:40:16;100755.25;;;20.49;100.00
29417;BME280;28421;51.030;4.006;2023-07-29T11:42:42;100777.72;;;20.91;100.00
29417;BME280;28421;51.030;4.006;2023-07-29T11:45:08;100763.09;;;20.85;100.00
29417;BME280;28421;51.030;4.006;2023-07-29T11:47:35;100779.38;;;21.21;98.54
29417;BME280;28421;51.030;4.006;2023-07-29T11:50:03;100786.84;;;21.25;92.37
29417;BME280;28421;51.030;4.006;2023-07-29T11:52:31;100785.75;;;21.38;89.30
29417;BME280;28421;51.030;4.006;2023-07-29T11:54:58;100742.97;;;20.63;88.94
29417;BME280;28421;51.030;4.006;2023-07-29T11:57:24;100732.97;;;21.26;87.25
29417;BME280;28421;51.030;4.006;2023-07-29T11:59:49;100784.72;;;21.90;84.84
29417;BME280;28421;51.030;4.006;2023-07-29T12:02:16;100768.28;;;21.56;80.48
29417;BME280;28421;51.030;4.006;2023-07-29T12:04:47;100728.22;;;21.33;80.19
29417;BME280;28421;51.030;4.006;2023-07-29T12:07:13;100794.59;;;21.57;79.75
29417;BME280;28421;51.030;4.006;2023-07-29T12:09:40;100778.06;;;21.52;81.44
29417;BME280;28421;51.030;4.006;2023-07-29T12:12:07;100728.56;;;21.08;77.85
29417;BME280;28421;51.030;4.006;2023-07-29T12:14:33;100757.03;;;21.24;79.69
29417;BME280;28421;51.030;4.006;2023-07-29T12:17:03;100741.25;;;21.59;81.14
29417;BME280;28421;51.030;4.006;2023-07-29T12:19:33;100735.44;;;21.56;75.48
29417;BME280;28421;51.030;4.006;2023-07-29T12:22:00;100749.41;;;21.71;77.33
29417;BME280;28421;51.030;4.006;2023-07-29T12:24:25;100704.53;;;21.72;78.31
29417;BME280;28421;51.030;4.006;2023-07-29T12:26:51;100737.69;;;22.26;78.11
29417;BME280;28421;51.030;4.006;2023-07-29T12:29:18;100737.81;;;22.15;72.63
29417;BME280;28421;51.030;4.006;2023-07-29T12:31:47;100720.84;;;22.01;70.66
29417;BME280;28421;51.030;4.006;2023-07-29T12:34:21;100741.50;;;22.25;71.12
29417;BME280;28421;51.030;4.006;2023-07-29T12:36:49;100759.31;;;22.67;72.60
29417;BME280;28421;51.030;4.006;2023-07-29T12:39:19;100719.88;;;22.68;69.89
29417;BME280;28421;51.030;4.006;2023-07-29T12:41:46;100749.66;;;23.03;68.76
29417;BME280;28421;51.030;4.006;2023-07-29T12:44:12;100755.72;;;23.32;69.28
29417;BME280;28421;51.030;4.006;2023-07-29T12:46:38;100726.91;;;23.02;69.16
29417;BME280;28421;51.030;4.006;2023-07-29T12:49:03;100760.31;;;22.99;68.49
29417;BME280;28421;51.030;4.006;2023-07-29T12:51:28;100712.59;;;23.00;69.04
29417;BME280;28421;51.030;4.006;2023-07-29T12:53:54;100702.31;;;23.13;69.90
29417;BME280;28421;51.030;4.006;2023-07-29T12:56:20;100699.22;;;23.31;68.66
29417;BME280;28421;51.030;4.006;2023-07-29T12:58:45;100735.81;;;23.74;68.88
29417;BME280;28421;51.030;4.006;2023-07-29T13:01:11;100704.97;;;23.99;68.25